Aeroporto :
LOGIN :

Iscrizione | Disclaimer

   EN    FR    IT 

 










Sommario :    VFR   VFR Marginale   IFR   IFR Intensivo   IFR Molto Intensivo
Visibilità : 
Base nubi : 
>= 8 km
>= 3000ft
5 / 8 km
1000 / 3000 ft
1500m / 5 km
500 / 1000 ft
800 / 1500m
200 / 500 ft
< 800m
< 200 ft
Simboli :   Temporali  Nebbia  Neve Forte  Precipitazioni Forti  Vento > 20 kt
SIGMETs :   Varie  Temporali  Ghiacco  Turbolenza  Onda orograficha  Ceneri Vulcaniche






- Altitudine del aeroporto : 273 ft


EGXT - RAF Wittering Stamford

ULTIMO METAR :
  • 211321Z 10012KT 9999 BKN016 06/03 Q1002 RMK WHT

METARs OBSOLETI :
  • 211250Z 10013KT 9999 BKN016 06/03 Q1003 RMK WHT
  • 211220Z 09012KT 8000 HZ OVC014 05/03 Q1003 RMK GRN
  • 211150Z 09010KT 7000 HZ SCT013 BKN018 05/03 Q1004 RMK GRN
  • 211124Z 08009KT 4000 HZ BKN015 05/03 Q1004 RMK GRN
  • 211050Z 08009KT 6000 3600E HZ BKN020 04/03 Q1004 YLO1
  • 211022Z 08009KT 3500 HZ BKN018 04/03 Q1005 RMK YLO1

TAF AMD TAF EGXT
Valido dal 21 a 12 ore il 21 a 18 ore UTC


211122Z 2112/2118 10007KT 6000 HZ BKN018
TEMPO 2112/2118 BKN013
PROB30
TEMPO 2112/2117 9999 NSW
PROB30 2117/2118 4000 BR



MetMap, La meteo Aeronautica in un colpo d'occhio ! - Copyright ORBIFLY Dicembre 2007 - Disclaimer

ORBIFLY MET'MAP TEAM :

Programmazione e sviluppo : Alexandra Zaïnal
Concezione e sviluppo : Baudouin d'Aumeries
Co-Programmazione e sviluppo : Marc-Olivier Méhu
Supporto tecnico e logistico : Manuel Goepfert
Aiuto per la traduzione : Arnaldo La Scala

Contatto : metmap@orbifly.com




FONTI E CREDITI :

   NOAA